createdAt,value
2022-08-20T00:00:22.478Z,99.90
2022-08-20T00:03:30.451Z,99.90
2022-08-20T00:06:35.214Z,99.90
2022-08-20T00:09:41.596Z,99.90
2022-08-20T00:12:49.125Z,99.90
2022-08-20T00:15:53.670Z,99.90
2022-08-20T00:18:59.704Z,99.90
2022-08-20T00:22:04.761Z,99.90
2022-08-20T00:25:09.834Z,99.90
2022-08-20T00:28:14.847Z,99.90
2022-08-20T00:31:22.588Z,99.90
2022-08-20T00:34:27.976Z,99.90
2022-08-20T00:37:32.490Z,99.90
2022-08-20T00:40:38.960Z,99.90
2022-08-20T00:43:49.030Z,99.90
2022-08-20T00:46:54.289Z,99.90
2022-08-20T00:49:58.808Z,99.90
2022-08-20T00:53:07.590Z,99.90
2022-08-20T00:56:13.511Z,99.90
2022-08-20T00:59:23.697Z,99.90
2022-08-20T01:02:30.314Z,99.90
2022-08-20T01:05:35.892Z,99.90
2022-08-20T01:08:42.619Z,99.90
2022-08-20T01:11:47.524Z,99.90
2022-08-20T01:14:52.957Z,99.90
2022-08-20T01:18:00.427Z,99.90
2022-08-20T01:21:06.732Z,99.90
2022-08-20T01:24:25.077Z,99.90
2022-08-20T01:27:30.893Z,99.90
2022-08-20T01:30:38.327Z,99.90
2022-08-20T01:33:44.261Z,99.90
2022-08-20T01:36:53.350Z,99.90
2022-08-20T01:39:58.719Z,99.90
2022-08-20T01:43:06.094Z,99.90
2022-08-20T01:46:11.648Z,99.90
2022-08-20T01:49:24.755Z,99.90
2022-08-20T01:52:41.337Z,99.90
2022-08-20T01:55:46.471Z,99.90
2022-08-20T01:58:56.047Z,99.90
2022-08-20T02:02:04.574Z,99.90
2022-08-20T02:05:10.682Z,99.90
2022-08-20T02:08:15.110Z,99.90
2022-08-20T02:11:20.252Z,99.90
2022-08-20T02:14:26.780Z,99.90
2022-08-20T02:17:31.446Z,99.90
2022-08-20T02:20:37.444Z,99.90
2022-08-20T02:23:42.370Z,99.90
2022-08-20T02:26:47.618Z,99.90
2022-08-20T02:29:53.126Z,99.90
2022-08-20T02:32:58.493Z,99.90
2022-08-20T02:36:03.858Z,99.90
2022-08-20T02:39:10.791Z,99.90
2022-08-20T02:42:15.306Z,99.90
2022-08-20T02:45:22.473Z,99.90
2022-08-20T02:48:27.538Z,99.90
2022-08-20T02:51:33.394Z,99.90
2022-08-20T02:54:38.050Z,99.90
2022-08-20T02:57:43.603Z,99.90
2022-08-20T03:00:49.182Z,99.90
2022-08-20T03:03:54.754Z,99.90
2022-08-20T03:06:59.494Z,99.90
2022-08-20T03:10:04.363Z,99.90
2022-08-20T03:13:12.384Z,99.90
2022-08-20T03:16:17.239Z,99.90
2022-08-20T03:19:23.058Z,99.90
2022-08-20T03:22:27.998Z,99.90
2022-08-20T03:25:33.236Z,99.90
2022-08-20T03:28:37.799Z,99.90
2022-08-20T03:31:42.221Z,99.90
2022-08-20T03:34:46.844Z,99.90
2022-08-20T03:37:51.930Z,99.90
2022-08-20T03:40:56.437Z,99.90
2022-08-20T03:44:00.809Z,99.90
2022-08-20T03:47:07.885Z,99.90
2022-08-20T03:50:14.705Z,99.90
2022-08-20T03:53:32.048Z,99.90
2022-08-20T03:56:36.858Z,99.90
2022-08-20T03:59:42.897Z,99.90
2022-08-20T04:02:47.608Z,99.90
2022-08-20T04:05:52.355Z,99.90
2022-08-20T04:08:57.234Z,99.90
2022-08-20T04:12:02.167Z,99.90
2022-08-20T04:15:15.469Z,99.90
2022-08-20T04:18:24.161Z,99.90
2022-08-20T04:21:29.673Z,99.90
2022-08-20T04:24:37.340Z,99.90
2022-08-20T04:27:41.673Z,99.90
2022-08-20T04:30:51.702Z,99.90
2022-08-20T04:33:56.759Z,99.90
2022-08-20T04:37:01.190Z,99.90
2022-08-20T04:40:28.022Z,99.90
2022-08-20T04:43:35.174Z,99.90
2022-08-20T04:46:40.063Z,99.90
2022-08-20T04:49:45.878Z,99.90
2022-08-20T04:52:50.683Z,99.90
2022-08-20T04:55:55.762Z,99.90
2022-08-20T04:59:01.032Z,99.90
2022-08-20T05:02:05.377Z,99.90
2022-08-20T05:05:11.052Z,99.90
2022-08-20T05:08:19.992Z,99.90
2022-08-20T05:11:34.081Z,99.90
2022-08-20T05:14:42.225Z,99.90
2022-08-20T05:17:47.314Z,99.90
2022-08-20T05:20:52.672Z,99.90
2022-08-20T05:23:57.017Z,99.90
2022-08-20T05:27:01.575Z,99.90
2022-08-20T05:30:13.644Z,99.90
2022-08-20T05:33:20.651Z,99.90
2022-08-20T05:36:24.999Z,99.90
2022-08-20T05:39:30.407Z,99.90
2022-08-20T05:42:37.559Z,99.90
2022-08-20T05:45:43.901Z,99.90
2022-08-20T05:48:48.818Z,99.90
2022-08-20T05:51:53.556Z,99.90
2022-08-20T05:54:57.814Z,99.90
2022-08-20T05:58:04.510Z,99.90
2022-08-20T06:01:09.278Z,99.90
2022-08-20T06:04:26.866Z,99.90
2022-08-20T06:07:31.841Z,99.90
2022-08-20T06:10:38.537Z,99.90
2022-08-20T06:13:47.099Z,99.90
2022-08-20T06:16:57.861Z,99.90
2022-08-20T06:20:07.806Z,99.90
2022-08-20T06:23:13.277Z,99.90
2022-08-20T06:26:28.942Z,99.90
2022-08-20T06:29:36.395Z,99.90
2022-08-20T06:32:41.107Z,99.90
2022-08-20T06:35:45.559Z,99.90
2022-08-20T06:38:50.050Z,99.90
2022-08-20T06:41:56.151Z,99.90
2022-08-20T06:45:04.974Z,99.90
2022-08-20T06:48:15.323Z,99.90
2022-08-20T06:51:21.763Z,99.90
2022-08-20T06:54:28.663Z,99.90
2022-08-20T06:57:35.414Z,99.90
2022-08-20T07:00:42.383Z,99.90
2022-08-20T07:03:55.032Z,99.90
2022-08-20T07:07:01.799Z,99.90
2022-08-20T07:10:09.290Z,99.90
2022-08-20T07:13:15.669Z,99.90
2022-08-20T07:16:20.206Z,99.90
2022-08-20T07:19:24.620Z,99.90
2022-08-20T07:22:29.063Z,99.90
2022-08-20T07:25:34.017Z,99.90
2022-08-20T07:28:38.240Z,99.90
2022-08-20T07:32:01.232Z,99.90
2022-08-20T07:35:12.221Z,99.90
2022-08-20T07:38:26.297Z,99.90
2022-08-20T07:41:30.957Z,99.90
2022-08-20T07:44:35.239Z,99.90
2022-08-20T07:47:43.284Z,99.90
2022-08-20T07:50:49.993Z,99.90
2022-08-20T07:53:54.711Z,99.90
2022-08-20T07:57:04.514Z,99.90
2022-08-20T08:00:11.568Z,99.90
2022-08-20T08:03:16.620Z,99.90
2022-08-20T08:06:30.554Z,99.90
2022-08-20T08:09:36.073Z,99.90
2022-08-20T08:12:47.453Z,99.90
2022-08-20T08:15:51.819Z,99.90
2022-08-20T08:18:56.866Z,99.90
2022-08-20T08:22:01.220Z,99.90
2022-08-20T08:25:06.195Z,99.90
2022-08-20T08:28:14.257Z,99.90
2022-08-20T08:31:18.650Z,99.90
2022-08-20T08:34:25.275Z,99.90
2022-08-20T08:37:31.004Z,99.90
2022-08-20T08:40:35.207Z,99.90
2022-08-20T08:43:40.157Z,99.90
2022-08-20T08:46:49.563Z,99.90
2022-08-20T08:49:56.062Z,99.90
2022-08-20T08:53:02.666Z,99.90
2022-08-20T08:56:08.353Z,99.90
2022-08-20T08:59:13.174Z,99.90
2022-08-20T09:02:23.188Z,99.90
2022-08-20T09:05:41.237Z,99.90
2022-08-20T09:08:51.079Z,99.90
2022-08-20T09:12:02.393Z,99.90
2022-08-20T09:15:07.278Z,99.90
2022-08-20T09:18:11.767Z,99.90
2022-08-20T09:21:16.164Z,99.90
2022-08-20T09:24:20.722Z,99.90
2022-08-20T09:27:25.106Z,99.90
2022-08-20T09:30:29.404Z,99.90
2022-08-20T09:33:33.839Z,99.90
2022-08-20T09:36:38.291Z,99.90
2022-08-20T09:39:43.351Z,99.90
2022-08-20T09:42:47.923Z,99.90
2022-08-20T09:45:52.602Z,99.90
2022-08-20T09:48:57.029Z,99.90
2022-08-20T09:52:01.762Z,99.90
2022-08-20T09:55:26.252Z,99.90
2022-08-20T09:58:33.637Z,99.90
2022-08-20T10:01:38.515Z,99.90
2022-08-20T10:04:42.968Z,99.90
2022-08-20T10:07:47.271Z,99.90
2022-08-20T10:10:52.205Z,99.90
2022-08-20T10:13:57.154Z,99.90
2022-08-20T10:17:03.293Z,99.90
2022-08-20T10:20:10.718Z,99.90
2022-08-20T10:23:15.267Z,99.90
2022-08-20T10:26:19.890Z,99.90
2022-08-20T10:29:26.047Z,99.90
2022-08-20T10:32:30.745Z,99.90
2022-08-20T10:35:35.107Z,99.90
2022-08-20T10:38:40.048Z,99.90
2022-08-20T10:41:44.814Z,99.90
2022-08-20T10:44:49.619Z,99.90
2022-08-20T10:47:54.044Z,99.90
2022-08-20T10:50:58.511Z,99.90
2022-08-20T10:54:06.316Z,99.90
2022-08-20T10:57:20.009Z,99.90
2022-08-20T11:00:24.825Z,99.90
2022-08-20T11:03:29.302Z,99.90
2022-08-20T11:06:33.773Z,99.90
2022-08-20T11:09:38.706Z,99.90
2022-08-20T11:12:45.550Z,99.90
2022-08-20T11:15:50.939Z,99.90
2022-08-20T11:18:55.507Z,99.90
2022-08-20T11:21:59.974Z,99.90
2022-08-20T11:25:06.086Z,99.90
2022-08-20T11:28:10.813Z,99.90
2022-08-20T11:31:15.754Z,99.00
2022-08-20T11:34:20.323Z,99.10
2022-08-20T11:37:25.449Z,99.20
2022-08-20T11:40:30.621Z,98.80
2022-08-20T11:43:35.386Z,97.10
2022-08-20T11:46:39.961Z,97.10
2022-08-20T11:49:44.338Z,96.20
2022-08-20T11:52:49.317Z,95.60
2022-08-20T11:55:53.980Z,95.60
2022-08-20T11:58:58.431Z,93.70
2022-08-20T12:02:03.686Z,93.00
2022-08-20T12:05:09.578Z,91.40
2022-08-20T12:08:25.221Z,91.70
2022-08-20T12:11:32.265Z,93.40
2022-08-20T12:14:36.673Z,96.30
2022-08-20T12:17:41.215Z,95.20
2022-08-20T12:20:45.546Z,92.90
2022-08-20T12:23:49.995Z,92.40
2022-08-20T12:26:54.351Z,90.80
2022-08-20T12:30:01.830Z,90.30
2022-08-20T12:33:06.391Z,88.90
2022-08-20T12:36:11.101Z,88.90
2022-08-20T12:39:15.795Z,90.00
2022-08-20T12:42:20.938Z,90.50
2022-08-20T12:45:25.722Z,90.80
2022-08-20T12:48:30.057Z,92.30
2022-08-20T12:51:34.484Z,94.20
2022-08-20T12:54:39.016Z,96.70
2022-08-20T12:57:49.812Z,97.80
2022-08-20T13:00:54.447Z,97.50
2022-08-20T13:03:58.881Z,96.20
2022-08-20T13:07:04.308Z,95.30
2022-08-20T13:10:12.256Z,95.30
2022-08-20T13:13:20.608Z,95.40
2022-08-20T13:16:25.749Z,94.90
2022-08-20T13:19:31.463Z,96.20
2022-08-20T13:22:36.455Z,96.80
2022-08-20T13:25:41.166Z,95.60
2022-08-20T13:28:45.483Z,93.90
2022-08-20T13:31:49.903Z,93.20
2022-08-20T13:34:54.175Z,92.40
2022-08-20T13:37:58.453Z,92.10
2022-08-20T13:41:03.024Z,92.30
2022-08-20T13:44:07.672Z,94.00
2022-08-20T13:47:28.148Z,93.20
2022-08-20T13:50:32.761Z,93.80
2022-08-20T13:53:37.230Z,93.40
2022-08-20T13:56:41.963Z,93.20
2022-08-20T13:59:49.469Z,93.90
2022-08-20T14:02:54.138Z,92.40
2022-08-20T14:06:00.874Z,90.80
2022-08-20T14:09:05.343Z,90.40
2022-08-20T14:12:11.343Z,90.40
2022-08-20T14:15:16.783Z,90.90
2022-08-20T14:18:21.356Z,87.90
2022-08-20T14:21:25.814Z,86.60
2022-08-20T14:24:30.226Z,87.90
2022-08-20T14:27:36.111Z,86.40
2022-08-20T14:30:41.851Z,88.10
2022-08-20T14:33:46.132Z,85.30
2022-08-20T14:36:50.404Z,88.20
2022-08-20T14:39:57.856Z,88.90
2022-08-20T14:43:02.136Z,89.60
2022-08-20T14:46:06.386Z,90.30
2022-08-20T14:49:10.959Z,91.80
2022-08-20T14:52:17.030Z,91.00
2022-08-20T14:55:25.773Z,88.10
2022-08-20T14:58:30.224Z,87.80
2022-08-20T15:01:34.616Z,90.20
2022-08-20T15:04:40.870Z,89.30
2022-08-20T15:07:48.999Z,87.90
2022-08-20T15:10:56.062Z,85.20
2022-08-20T15:14:00.306Z,85.20
2022-08-20T15:17:04.762Z,83.50
2022-08-20T15:20:20.351Z,85.50
2022-08-20T15:23:25.238Z,84.50
2022-08-20T15:26:29.720Z,82.10
2022-08-20T15:29:34.298Z,81.70
2022-08-20T15:32:38.942Z,78.10
2022-08-20T15:35:43.363Z,78.50
2022-08-20T15:38:47.778Z,77.00
2022-08-20T15:41:52.160Z,75.30
2022-08-20T15:44:56.619Z,76.10
2022-08-20T15:48:15.167Z,81.20
2022-08-20T15:51:23.044Z,80.70
2022-08-20T15:54:29.699Z,83.30
2022-08-20T15:57:59.324Z,85.10
2022-08-20T16:01:25.140Z,87.30
2022-08-20T16:04:52.064Z,90.50
2022-08-20T16:08:00.867Z,92.50
2022-08-20T16:11:27.249Z,93.80
2022-08-20T16:14:37.950Z,92.60
2022-08-20T16:18:14.474Z,92.70
2022-08-20T16:21:42.626Z,94.40
2022-08-20T16:24:47.860Z,95.10
2022-08-20T16:28:03.010Z,95.90
2022-08-20T16:31:14.077Z,96.50
2022-08-20T16:34:34.624Z,96.80
2022-08-20T16:37:52.625Z,98.20
2022-08-20T16:41:06.996Z,99.70
2022-08-20T16:44:14.048Z,99.90
2022-08-20T16:47:21.331Z,99.90
2022-08-20T16:50:33.579Z,99.90
2022-08-20T16:53:38.951Z,99.90
2022-08-20T16:56:46.758Z,99.90
2022-08-20T16:59:59.257Z,99.90
2022-08-20T17:03:07.572Z,99.90
2022-08-20T17:06:37.004Z,99.90
2022-08-20T17:09:43.841Z,99.90
2022-08-20T17:13:00.849Z,99.90
2022-08-20T17:16:19.336Z,99.90
2022-08-20T17:19:30.704Z,99.90
2022-08-20T17:22:42.962Z,99.90
2022-08-20T17:26:01.009Z,99.90
2022-08-20T17:29:22.027Z,99.90
2022-08-20T17:32:29.017Z,99.90
2022-08-20T17:35:42.979Z,99.90
2022-08-20T17:38:52.708Z,99.90
2022-08-20T17:42:04.298Z,99.90
2022-08-20T17:45:15.468Z,99.90
2022-08-20T17:48:33.145Z,99.90
2022-08-20T17:51:45.993Z,99.90
2022-08-20T17:54:50.566Z,99.90
2022-08-20T17:57:59.337Z,99.90
2022-08-20T18:01:04.512Z,99.90
2022-08-20T18:04:14.109Z,99.90
2022-08-20T18:07:27.480Z,99.90
2022-08-20T18:10:42.187Z,99.90
2022-08-20T18:14:05.029Z,99.90
2022-08-20T18:17:28.115Z,99.90
2022-08-20T18:21:00.597Z,99.90
2022-08-20T18:24:12.097Z,99.90
2022-08-20T18:27:20.435Z,99.90
2022-08-20T18:30:26.622Z,99.90
2022-08-20T18:33:35.435Z,99.90
2022-08-20T18:36:40.010Z,99.90
2022-08-20T18:39:46.955Z,99.90
2022-08-20T18:42:51.283Z,99.90
2022-08-20T18:45:55.772Z,99.90
2022-08-20T18:49:03.367Z,99.90
2022-08-20T18:52:26.161Z,99.90
2022-08-20T18:55:32.622Z,99.90
2022-08-20T18:59:02.733Z,99.90
2022-08-20T19:02:22.082Z,99.90
2022-08-20T19:05:54.238Z,99.90
2022-08-20T19:09:29.276Z,99.90
2022-08-20T19:12:52.332Z,99.90
2022-08-20T19:16:05.851Z,99.90
2022-08-20T19:19:16.933Z,99.90
2022-08-20T19:22:21.545Z,99.90
2022-08-20T19:25:31.848Z,99.90
2022-08-20T19:28:44.306Z,99.90
2022-08-20T19:31:48.801Z,99.90
2022-08-20T19:34:59.824Z,99.90
2022-08-20T19:38:08.146Z,99.90
2022-08-20T19:41:20.204Z,99.90
2022-08-20T19:44:40.889Z,99.90
2022-08-20T19:48:27.576Z,99.90
2022-08-20T19:51:47.909Z,99.90
2022-08-20T19:55:00.013Z,99.90
2022-08-20T19:58:26.027Z,99.90
2022-08-20T20:01:32.159Z,99.90
2022-08-20T20:04:55.565Z,99.90
2022-08-20T20:08:04.523Z,99.90
2022-08-20T20:11:15.902Z,99.90
2022-08-20T20:14:22.995Z,99.90
2022-08-20T20:17:33.541Z,99.90
2022-08-20T20:20:55.820Z,99.90
2022-08-20T20:24:03.152Z,99.90
2022-08-20T20:27:20.293Z,99.90
2022-08-20T20:30:30.260Z,99.90
2022-08-20T20:33:43.379Z,99.90
2022-08-20T20:36:48.366Z,99.90
2022-08-20T20:40:02.395Z,99.90
2022-08-20T20:43:10.111Z,99.90
2022-08-20T20:46:20.378Z,99.90
2022-08-20T20:49:36.982Z,99.90
2022-08-20T20:52:51.357Z,99.90
2022-08-20T20:55:57.303Z,99.90
2022-08-20T20:59:06.507Z,99.90
2022-08-20T21:02:10.792Z,99.90
2022-08-20T21:05:16.406Z,99.90
2022-08-20T21:08:20.910Z,99.90
2022-08-20T21:11:25.378Z,99.90
2022-08-20T21:14:29.807Z,99.90
2022-08-20T21:17:34.046Z,99.90
2022-08-20T21:20:38.356Z,99.90
2022-08-20T21:23:42.994Z,99.90
2022-08-20T21:26:48.503Z,99.90
2022-08-20T21:29:53.880Z,99.90
2022-08-20T21:32:58.270Z,99.90
2022-08-20T21:36:03.166Z,99.90
2022-08-20T21:39:08.424Z,99.90
2022-08-20T21:42:28.551Z,99.90
2022-08-20T21:45:33.530Z,99.90
2022-08-20T21:48:38.855Z,99.90
2022-08-20T21:51:43.300Z,99.90
2022-08-20T21:54:47.726Z,99.90
2022-08-20T21:57:52.210Z,99.90
2022-08-20T22:01:03.524Z,99.90
2022-08-20T22:04:08.005Z,99.90
2022-08-20T22:07:12.363Z,99.90
2022-08-20T22:10:16.839Z,99.90
2022-08-20T22:13:22.877Z,99.90
2022-08-20T22:16:27.976Z,99.90
2022-08-20T22:19:32.511Z,99.90
2022-08-20T22:22:37.089Z,99.90
2022-08-20T22:25:41.786Z,99.90
2022-08-20T22:28:51.243Z,99.90
2022-08-20T22:31:55.778Z,99.90
2022-08-20T22:35:00.288Z,99.90
2022-08-20T22:38:04.518Z,99.90
2022-08-20T22:41:09.895Z,99.90
2022-08-20T22:44:14.857Z,99.90
2022-08-20T22:47:26.202Z,99.90
2022-08-20T22:50:30.741Z,99.90
2022-08-20T22:53:35.353Z,99.90
2022-08-20T22:56:40.860Z,99.90
2022-08-20T22:59:49.685Z,99.90
2022-08-20T23:02:59.597Z,99.90
2022-08-20T23:06:04.747Z,99.90
2022-08-20T23:09:12.837Z,99.90
2022-08-20T23:12:17.829Z,99.90
2022-08-20T23:15:22.283Z,99.90
2022-08-20T23:18:27.046Z,99.90
2022-08-20T23:21:31.263Z,99.90
2022-08-20T23:24:36.303Z,99.90
2022-08-20T23:27:44.758Z,99.90
2022-08-20T23:30:50.021Z,99.90
2022-08-20T23:33:54.587Z,99.90
2022-08-20T23:37:01.144Z,99.90
2022-08-20T23:40:06.968Z,99.90
2022-08-20T23:43:11.436Z,99.90
2022-08-20T23:46:15.906Z,99.90
2022-08-20T23:49:20.678Z,99.90
2022-08-20T23:52:24.739Z,99.90
2022-08-20T23:55:29.549Z,99.90
2022-08-20T23:58:33.943Z,99.90
